createdAt,value
2017-05-01T00:00:12.591Z,944.61
2017-05-01T00:01:13.413Z,944.64
2017-05-01T00:02:11.283Z,944.63
2017-05-01T00:03:13.809Z,944.62
2017-05-01T00:04:11.977Z,944.61
2017-05-01T00:05:13.395Z,944.62
2017-05-01T00:06:12.589Z,944.62
2017-05-01T00:07:14.580Z,944.62
2017-05-01T00:08:12.684Z,944.65
2017-05-01T00:09:12.828Z,944.64
2017-05-01T00:10:12.745Z,944.61
2017-05-01T00:11:13.078Z,944.61
2017-05-01T00:12:12.307Z,944.56
2017-05-01T00:13:12.374Z,944.57
2017-05-01T00:14:12.646Z,944.53
2017-05-01T00:15:12.947Z,944.52
2017-05-01T00:16:12.945Z,944.54
2017-05-01T00:17:10.184Z,944.52
2017-05-01T00:18:17.160Z,944.50
2017-05-01T00:19:12.177Z,944.47
2017-05-01T00:20:12.314Z,944.42
2017-05-01T00:21:13.013Z,944.43
2017-05-01T00:22:13.032Z,944.43
2017-05-01T00:23:12.743Z,944.43
2017-05-01T00:24:13.557Z,944.43
2017-05-01T00:25:13.981Z,944.38
2017-05-01T00:26:12.285Z,944.42
2017-05-01T00:27:13.058Z,944.38
2017-05-01T00:28:12.260Z,944.35
2017-05-01T00:29:12.907Z,944.32
2017-05-01T00:30:11.897Z,944.32
2017-05-01T00:31:13.753Z,944.33
2017-05-01T00:32:14.788Z,944.35
2017-05-01T00:33:11.910Z,944.36
2017-05-01T00:34:12.053Z,944.37
2017-05-01T00:35:12.272Z,944.33
2017-05-01T00:36:14.064Z,944.33
2017-05-01T00:37:10.712Z,944.29
2017-05-01T00:38:12.939Z,944.30
2017-05-01T00:39:12.098Z,944.25
2017-05-01T00:40:12.638Z,944.23
2017-05-01T00:41:12.819Z,944.25
2017-05-01T00:42:12.704Z,944.29
2017-05-01T00:43:13.365Z,944.30
2017-05-01T00:44:13.433Z,944.27
2017-05-01T00:45:13.783Z,944.25
2017-05-01T00:46:12.177Z,944.23
2017-05-01T00:47:12.140Z,944.23
2017-05-01T00:48:12.261Z,944.22
2017-05-01T00:49:12.751Z,944.24
2017-05-01T00:50:11.875Z,944.17
2017-05-01T00:51:11.880Z,944.21
2017-05-01T00:52:12.474Z,944.24
2017-05-01T00:53:13.157Z,944.21
2017-05-01T00:54:12.894Z,944.22
2017-05-01T00:55:12.027Z,944.22
2017-05-01T00:56:12.750Z,944.19
2017-05-01T00:57:13.033Z,944.21
2017-05-01T00:58:12.880Z,944.18
2017-05-01T00:59:11.923Z,944.21
2017-05-01T01:00:13.825Z,944.21
2017-05-01T01:01:12.545Z,944.16
2017-05-01T01:02:13.113Z,944.15
2017-05-01T01:03:12.186Z,944.17
2017-05-01T01:04:13.305Z,944.18
2017-05-01T01:05:13.603Z,944.16
2017-05-01T01:06:13.710Z,944.11
2017-05-01T01:07:11.120Z,944.15
2017-05-01T01:08:11.117Z,944.09
2017-05-01T01:09:12.432Z,944.10
2017-05-01T01:10:13.059Z,944.12
2017-05-01T01:11:12.869Z,944.08
2017-05-01T01:12:13.384Z,944.07
2017-05-01T01:13:13.153Z,944.11
2017-05-01T01:14:12.991Z,944.12
2017-05-01T01:15:13.805Z,944.12
2017-05-01T01:16:11.947Z,944.11
2017-05-01T01:17:13.485Z,944.09
2017-05-01T01:18:14.346Z,944.11
2017-05-01T01:19:12.618Z,944.11
2017-05-01T01:20:13.906Z,944.13
2017-05-01T01:21:11.769Z,944.09
2017-05-01T01:22:13.316Z,944.10
2017-05-01T01:23:13.057Z,944.07
2017-05-01T01:24:12.970Z,944.10
2017-05-01T01:25:12.672Z,944.09
2017-05-01T01:26:13.500Z,944.10
2017-05-01T01:27:14.154Z,944.11
2017-05-01T01:28:12.379Z,944.12
2017-05-01T01:29:13.699Z,944.14
2017-05-01T01:30:11.021Z,944.15
2017-05-01T01:31:12.561Z,944.15
2017-05-01T01:32:12.555Z,944.17
2017-05-01T01:33:13.649Z,944.18
2017-05-01T01:34:13.588Z,944.20
2017-05-01T01:35:13.205Z,944.17
2017-05-01T01:36:13.138Z,944.18
2017-05-01T01:37:14.160Z,944.14
2017-05-01T01:38:12.359Z,944.15
2017-05-01T01:39:11.197Z,944.18
2017-05-01T01:40:13.072Z,944.18
2017-05-01T01:41:12.269Z,944.20
2017-05-01T01:42:12.913Z,944.19
2017-05-01T01:43:11.961Z,944.19
2017-05-01T01:44:11.159Z,944.16
2017-05-01T01:45:13.069Z,944.18
2017-05-01T01:46:12.434Z,944.21
2017-05-01T01:47:13.030Z,944.21
2017-05-01T01:48:13.768Z,944.14
2017-05-01T01:49:16.062Z,944.16
2017-05-01T01:50:12.728Z,944.11
2017-05-01T01:51:11.044Z,944.13
2017-05-01T01:52:12.462Z,944.12
2017-05-01T01:53:12.578Z,944.07
2017-05-01T01:54:14.372Z,944.11
2017-05-01T01:55:13.239Z,944.16
2017-05-01T01:56:12.445Z,944.17
2017-05-01T01:57:12.967Z,944.18
2017-05-01T01:58:12.416Z,944.12
2017-05-01T01:59:11.238Z,944.11
2017-05-01T02:00:11.226Z,944.14
2017-05-01T02:01:13.372Z,944.14
2017-05-01T02:02:12.783Z,944.13
2017-05-01T02:03:12.614Z,944.08
2017-05-01T02:04:11.203Z,944.09
2017-05-01T02:05:12.082Z,944.04
2017-05-01T02:06:13.208Z,944.09
2017-05-01T02:07:13.744Z,944.09
2017-05-01T02:08:14.391Z,944.12
2017-05-01T02:09:13.053Z,944.15
2017-05-01T02:10:12.150Z,944.17
2017-05-01T02:11:12.461Z,944.18
2017-05-01T02:12:12.731Z,944.15
2017-05-01T02:13:13.054Z,944.16
2017-05-01T02:14:12.821Z,944.12
2017-05-01T02:15:13.600Z,944.13
2017-05-01T02:16:10.688Z,944.12
2017-05-01T02:17:13.668Z,944.17
2017-05-01T02:18:13.728Z,944.16
2017-05-01T02:19:13.320Z,944.14
2017-05-01T02:20:13.024Z,944.13
2017-05-01T02:21:12.775Z,944.10
2017-05-01T02:22:13.642Z,944.13
2017-05-01T02:23:13.819Z,944.11
2017-05-01T02:24:13.080Z,944.08
2017-05-01T02:25:11.916Z,944.12
2017-05-01T02:26:13.564Z,944.08
2017-05-01T02:27:12.862Z,944.06
2017-05-01T02:28:11.970Z,944.05
2017-05-01T02:29:12.146Z,944.10
2017-05-01T02:30:13.966Z,944.08
2017-05-01T02:31:13.510Z,944.07
2017-05-01T02:32:12.959Z,944.07
2017-05-01T02:33:12.331Z,944.05
2017-05-01T02:34:13.049Z,944.07
2017-05-01T02:35:13.086Z,944.05
2017-05-01T02:36:12.229Z,944.07
2017-05-01T02:37:13.718Z,944.08
2017-05-01T02:38:12.901Z,944.11
2017-05-01T02:39:12.477Z,944.13
2017-05-01T02:40:12.637Z,944.07
2017-05-01T02:41:14.500Z,944.10
2017-05-01T02:42:14.029Z,944.10
2017-05-01T02:43:11.193Z,944.07
2017-05-01T02:44:13.058Z,944.08
2017-05-01T02:45:12.782Z,944.09
2017-05-01T02:46:12.754Z,944.13
2017-05-01T02:47:14.036Z,944.10
2017-05-01T02:48:13.085Z,944.08
2017-05-01T02:49:11.999Z,944.12
2017-05-01T02:50:13.057Z,944.14
2017-05-01T02:51:12.351Z,944.21
2017-05-01T02:52:13.342Z,944.18
2017-05-01T02:53:10.643Z,944.19
2017-05-01T02:54:12.261Z,944.17
2017-05-01T02:55:12.437Z,944.15
2017-05-01T02:56:12.783Z,944.10
2017-05-01T02:57:13.681Z,944.15
2017-05-01T02:58:12.957Z,944.14
2017-05-01T02:59:12.042Z,944.23
2017-05-01T03:00:12.809Z,944.19
2017-05-01T03:01:14.615Z,944.17
2017-05-01T03:02:13.398Z,944.16
2017-05-01T03:03:13.076Z,944.19
2017-05-01T03:04:13.872Z,944.11
2017-05-01T03:05:12.878Z,944.13
2017-05-01T03:06:12.277Z,944.11
2017-05-01T03:07:12.420Z,944.10
2017-05-01T03:08:13.923Z,944.11
2017-05-01T03:09:12.636Z,944.08
2017-05-01T03:10:11.293Z,944.04
2017-05-01T03:11:13.472Z,944.04
2017-05-01T03:12:13.042Z,944.07
2017-05-01T03:13:14.921Z,944.10
2017-05-01T03:14:12.653Z,944.11
2017-05-01T03:15:13.639Z,944.16
2017-05-01T03:16:13.658Z,944.15
2017-05-01T03:17:13.478Z,944.20
2017-05-01T03:18:13.392Z,944.17
2017-05-01T03:19:11.156Z,944.24
2017-05-01T03:20:12.277Z,944.23
2017-05-01T03:21:12.407Z,944.21
2017-05-01T03:22:12.936Z,944.25
2017-05-01T03:23:12.588Z,944.35
2017-05-01T03:24:13.391Z,944.35
2017-05-01T03:25:13.123Z,944.33
2017-05-01T03:26:10.865Z,944.32
2017-05-01T03:27:12.633Z,944.33
2017-05-01T03:28:14.381Z,944.33
2017-05-01T03:29:13.481Z,944.31
2017-05-01T03:30:12.927Z,944.30
2017-05-01T03:31:12.849Z,944.35
2017-05-01T03:32:13.627Z,944.32
2017-05-01T03:33:13.608Z,944.38
2017-05-01T03:34:14.121Z,944.38
2017-05-01T03:35:12.863Z,944.35
2017-05-01T03:36:11.969Z,944.31
2017-05-01T03:37:14.036Z,944.33
2017-05-01T03:38:12.969Z,944.35
2017-05-01T03:39:12.260Z,944.34
2017-05-01T03:40:13.001Z,944.38
2017-05-01T03:41:12.871Z,944.39
2017-05-01T03:42:13.807Z,944.37
2017-05-01T03:43:12.629Z,944.35
2017-05-01T03:44:13.089Z,944.38
2017-05-01T03:45:12.417Z,944.40
2017-05-01T03:46:14.235Z,944.40
2017-05-01T03:47:12.428Z,944.45
2017-05-01T03:48:14.194Z,944.41
2017-05-01T03:49:12.444Z,944.43
2017-05-01T03:50:12.668Z,944.46
2017-05-01T03:51:14.644Z,944.45
2017-05-01T03:52:12.852Z,944.47
2017-05-01T03:53:12.438Z,944.45
2017-05-01T03:54:12.629Z,944.48
2017-05-01T03:55:12.907Z,944.47
2017-05-01T03:56:14.866Z,944.45
2017-05-01T03:57:11.821Z,944.45
2017-05-01T03:58:12.076Z,944.44
2017-05-01T03:59:13.270Z,944.40
2017-05-01T04:00:13.044Z,944.44
2017-05-01T04:01:12.214Z,944.43
2017-05-01T04:02:12.386Z,944.45
2017-05-01T04:03:13.813Z,944.46
2017-05-01T04:04:11.884Z,944.45
2017-05-01T04:05:12.628Z,944.47
2017-05-01T04:06:13.557Z,944.46
2017-05-01T04:07:13.474Z,944.47
2017-05-01T04:08:13.665Z,944.48
2017-05-01T04:09:13.438Z,944.50
2017-05-01T04:10:12.743Z,944.47
2017-05-01T04:11:14.615Z,944.52
2017-05-01T04:12:13.121Z,944.52
2017-05-01T04:13:12.252Z,944.49
2017-05-01T04:14:14.046Z,944.50
2017-05-01T04:15:12.184Z,944.47
2017-05-01T04:16:12.812Z,944.47
2017-05-01T04:17:12.639Z,944.45
2017-05-01T04:18:13.461Z,944.42
2017-05-01T04:19:12.684Z,944.42
2017-05-01T04:20:12.992Z,944.44
2017-05-01T04:21:12.962Z,944.40
2017-05-01T04:22:12.845Z,944.43
2017-05-01T04:23:11.926Z,944.42
2017-05-01T04:24:12.862Z,944.40
2017-05-01T04:25:17.249Z,944.44
2017-05-01T04:26:12.946Z,944.52
2017-05-01T04:27:12.115Z,944.54
2017-05-01T04:28:13.049Z,944.52
2017-05-01T04:29:12.259Z,944.53
2017-05-01T04:30:12.442Z,944.51
2017-05-01T04:31:12.530Z,944.52
2017-05-01T04:32:13.521Z,944.49
2017-05-01T04:33:12.854Z,944.48
2017-05-01T04:34:12.472Z,944.50
2017-05-01T04:35:13.495Z,944.51
2017-05-01T04:36:10.650Z,944.55
2017-05-01T04:37:10.654Z,944.49
2017-05-01T04:38:12.850Z,944.53
2017-05-01T04:39:12.604Z,944.54
2017-05-01T04:40:13.459Z,944.54
2017-05-01T04:41:12.664Z,944.54
2017-05-01T04:42:12.979Z,944.54
2017-05-01T04:43:12.703Z,944.56
2017-05-01T04:44:14.689Z,944.56
2017-05-01T04:45:13.565Z,944.58
2017-05-01T04:46:12.510Z,944.57
2017-05-01T04:47:11.181Z,944.60
2017-05-01T04:48:11.155Z,944.64
2017-05-01T04:49:12.656Z,944.63
2017-05-01T04:50:13.270Z,944.65
2017-05-01T04:51:15.156Z,944.65
2017-05-01T04:52:12.779Z,944.68
2017-05-01T04:53:11.969Z,944.62
2017-05-01T04:54:12.418Z,944.60
2017-05-01T04:55:13.325Z,944.57
2017-05-01T04:56:10.936Z,944.53
2017-05-01T04:57:12.831Z,944.52
2017-05-01T04:58:13.637Z,944.47
2017-05-01T04:59:13.441Z,944.45
2017-05-01T05:00:12.995Z,944.44
2017-05-01T05:01:12.475Z,944.40
2017-05-01T05:02:12.454Z,944.47
2017-05-01T05:03:13.026Z,944.47
2017-05-01T05:04:13.815Z,944.44
2017-05-01T05:05:11.003Z,944.47
2017-05-01T05:06:12.730Z,944.51
2017-05-01T05:07:13.516Z,944.54
2017-05-01T05:08:14.301Z,944.53
2017-05-01T05:09:12.952Z,944.51
2017-05-01T05:10:13.579Z,944.55
2017-05-01T05:11:12.898Z,944.52
2017-05-01T05:12:12.096Z,944.53
2017-05-01T05:13:12.791Z,944.55
2017-05-01T05:14:11.843Z,944.54
2017-05-01T05:15:12.606Z,944.57
2017-05-01T05:16:13.083Z,944.64
2017-05-01T05:17:14.143Z,944.59
2017-05-01T05:18:13.679Z,944.61
2017-05-01T05:19:12.266Z,944.60
2017-05-01T05:20:14.224Z,944.66
2017-05-01T05:21:13.013Z,944.74
2017-05-01T05:22:12.171Z,944.75
2017-05-01T05:23:12.260Z,944.83
2017-05-01T05:24:12.983Z,944.84
2017-05-01T05:25:12.222Z,944.84
2017-05-01T05:26:12.439Z,944.84
2017-05-01T05:27:13.153Z,944.84
2017-05-01T05:28:11.089Z,944.84
2017-05-01T05:29:12.676Z,944.78
2017-05-01T05:30:12.896Z,944.86
2017-05-01T05:31:12.190Z,944.88
2017-05-01T05:32:12.423Z,944.87
2017-05-01T05:33:13.064Z,944.87
2017-05-01T05:34:12.281Z,944.85
2017-05-01T05:35:12.511Z,944.84
2017-05-01T05:36:13.518Z,944.90
2017-05-01T05:37:11.274Z,944.88
2017-05-01T05:38:10.922Z,944.87
2017-05-01T05:39:13.821Z,944.88
2017-05-01T05:40:12.669Z,944.90
2017-05-01T05:41:13.091Z,944.90
2017-05-01T05:42:13.757Z,944.91
2017-05-01T05:43:12.663Z,944.92
2017-05-01T05:44:13.524Z,944.94
2017-05-01T05:45:12.790Z,944.94
2017-05-01T05:46:11.040Z,944.95
2017-05-01T05:47:12.002Z,944.99
2017-05-01T05:48:12.990Z,945.08
2017-05-01T05:49:12.848Z,945.07
2017-05-01T05:50:12.027Z,945.07
2017-05-01T05:51:12.886Z,945.07
2017-05-01T05:52:12.782Z,945.05
2017-05-01T05:53:14.712Z,945.11
2017-05-01T05:54:13.076Z,945.05
2017-05-01T05:55:12.961Z,945.07
2017-05-01T05:56:12.196Z,945.05
2017-05-01T05:57:13.023Z,945.00
2017-05-01T05:58:13.869Z,945.06
2017-05-01T05:59:11.839Z,945.10
2017-05-01T06:00:12.031Z,945.10
2017-05-01T06:01:13.990Z,945.13
2017-05-01T06:02:12.629Z,945.14
2017-05-01T06:03:12.927Z,945.21
2017-05-01T06:04:12.852Z,945.24
2017-05-01T06:05:11.948Z,945.24
2017-05-01T06:06:12.443Z,945.23
2017-05-01T06:07:13.131Z,945.20
2017-05-01T06:08:15.166Z,945.17
2017-05-01T06:09:12.424Z,945.17
2017-05-01T06:10:13.812Z,945.18
2017-05-01T06:11:12.497Z,945.19
2017-05-01T06:12:13.342Z,945.13
2017-05-01T06:13:10.988Z,945.14
2017-05-01T06:14:12.636Z,945.12
2017-05-01T06:15:12.864Z,945.17
2017-05-01T06:16:12.522Z,945.20
2017-05-01T06:17:14.250Z,945.32
2017-05-01T06:18:13.372Z,945.35
2017-05-01T06:19:13.485Z,945.39
2017-05-01T06:20:12.781Z,945.36
2017-05-01T06:21:12.453Z,945.41
2017-05-01T06:22:13.351Z,945.44
2017-05-01T06:23:12.313Z,945.43
2017-05-01T06:24:12.441Z,945.46
2017-05-01T06:25:14.285Z,945.52
2017-05-01T06:26:11.171Z,945.48
2017-05-01T06:27:13.606Z,945.50
2017-05-01T06:28:13.401Z,945.52
2017-05-01T06:29:12.660Z,945.51
2017-05-01T06:30:13.018Z,945.56
2017-05-01T06:31:12.880Z,945.55
2017-05-01T06:32:21.734Z,945.57
2017-05-01T06:33:12.880Z,945.55
2017-05-01T06:34:12.609Z,945.58
2017-05-01T06:35:11.363Z,945.58
2017-05-01T06:36:12.793Z,945.61
2017-05-01T06:37:11.861Z,945.62
2017-05-01T06:38:14.815Z,945.55
2017-05-01T06:39:10.704Z,945.54
2017-05-01T06:40:12.598Z,945.60
2017-05-01T06:41:13.481Z,945.60
2017-05-01T06:42:13.144Z,945.61
2017-05-01T06:43:12.691Z,945.66
2017-05-01T06:44:12.858Z,945.67
2017-05-01T06:45:10.893Z,945.70
2017-05-01T06:46:12.782Z,945.71
2017-05-01T06:47:11.870Z,945.77
2017-05-01T06:48:13.050Z,945.81
2017-05-01T06:49:12.191Z,945.82
2017-05-01T06:50:12.824Z,945.85
2017-05-01T06:51:12.815Z,945.86
2017-05-01T06:52:12.827Z,945.90
2017-05-01T06:53:11.898Z,945.89
2017-05-01T06:54:11.951Z,945.89
2017-05-01T06:55:13.018Z,945.85
2017-05-01T06:56:13.077Z,945.84
2017-05-01T06:57:12.601Z,945.93
2017-05-01T06:58:13.004Z,945.88
2017-05-01T06:59:13.372Z,945.88
2017-05-01T07:00:13.157Z,945.88
2017-05-01T07:01:12.461Z,945.89
2017-05-01T07:02:12.636Z,945.91
2017-05-01T07:03:13.512Z,945.95
2017-05-01T07:04:10.736Z,945.97
2017-05-01T07:05:12.095Z,945.95
2017-05-01T07:06:12.248Z,945.99
2017-05-01T07:07:12.427Z,946.03
2017-05-01T07:08:12.590Z,945.96
2017-05-01T07:09:12.834Z,945.98
2017-05-01T07:10:12.520Z,946.00
2017-05-01T07:11:12.707Z,946.03
2017-05-01T07:12:13.558Z,946.03
2017-05-01T07:13:13.471Z,946.04
2017-05-01T07:14:11.348Z,946.00
2017-05-01T07:15:12.780Z,945.99
2017-05-01T07:16:11.902Z,946.06
2017-05-01T07:17:12.292Z,946.08
2017-05-01T07:18:12.455Z,946.10
2017-05-01T07:19:13.269Z,946.12
2017-05-01T07:20:12.397Z,946.13
2017-05-01T07:21:12.663Z,946.11
2017-05-01T07:22:15.372Z,946.13
2017-05-01T07:23:12.769Z,946.11
2017-05-01T07:24:12.282Z,946.12
2017-05-01T07:25:12.473Z,946.20
2017-05-01T07:26:13.038Z,946.15
2017-05-01T07:27:13.032Z,946.24
2017-05-01T07:28:12.872Z,946.12
2017-05-01T07:29:13.201Z,946.19
2017-05-01T07:30:12.402Z,946.18
2017-05-01T07:31:12.737Z,946.16
2017-05-01T07:32:19.136Z,946.18
2017-05-01T07:33:10.923Z,946.19
2017-05-01T07:34:12.262Z,946.26
2017-05-01T07:35:12.744Z,946.26
2017-05-01T07:36:13.340Z,946.23
2017-05-01T07:37:12.461Z,946.21
2017-05-01T07:38:13.254Z,946.20
2017-05-01T07:39:12.469Z,946.31
2017-05-01T07:40:11.121Z,946.30
2017-05-01T07:41:11.743Z,946.28
2017-05-01T07:42:13.446Z,946.36
2017-05-01T07:43:13.039Z,946.36
2017-05-01T07:44:13.708Z,946.38
2017-05-01T07:45:12.423Z,946.36
2017-05-01T07:46:12.554Z,946.37
2017-05-01T07:47:13.195Z,946.45
2017-05-01T07:48:12.467Z,946.43
2017-05-01T07:49:12.646Z,946.49
2017-05-01T07:50:13.072Z,946.46
2017-05-01T07:51:12.132Z,946.54
2017-05-01T07:52:13.499Z,946.59
2017-05-01T07:53:13.416Z,946.54
2017-05-01T07:54:11.242Z,946.61
2017-05-01T07:55:13.682Z,946.60
2017-05-01T07:56:13.509Z,946.76
2017-05-01T07:57:14.668Z,946.73
2017-05-01T07:58:10.968Z,946.68
2017-05-01T07:59:13.204Z,946.69
2017-05-01T08:00:13.045Z,946.66
2017-05-01T08:01:12.687Z,946.74
2017-05-01T08:02:13.519Z,946.77
2017-05-01T08:03:17.313Z,946.79
2017-05-01T08:04:14.545Z,946.80
2017-05-01T08:05:13.067Z,946.86
2017-05-01T08:06:12.196Z,946.83
2017-05-01T08:07:12.451Z,946.88
2017-05-01T08:08:12.526Z,946.77
2017-05-01T08:09:13.038Z,946.88
2017-05-01T08:10:12.821Z,946.90
2017-05-01T08:11:11.875Z,946.94
2017-05-01T08:12:12.256Z,946.95
2017-05-01T08:13:12.313Z,947.00
2017-05-01T08:14:12.972Z,947.01
2017-05-01T08:15:12.887Z,947.01
2017-05-01T08:16:13.079Z,947.09
2017-05-01T08:17:12.308Z,947.04
2017-05-01T08:18:12.632Z,947.12
2017-05-01T08:19:18.125Z,947.17
2017-05-01T08:20:14.911Z,947.09
2017-05-01T08:21:12.078Z,947.16
2017-05-01T08:22:14.839Z,947.20
2017-05-01T08:23:12.018Z,947.15
2017-05-01T08:24:10.458Z,947.15
2017-05-01T08:25:10.909Z,947.20
2017-05-01T08:26:12.454Z,947.18
2017-05-01T08:27:14.890Z,947.23
2017-05-01T08:28:16.811Z,947.25
2017-05-01T08:29:12.965Z,947.23
2017-05-01T08:30:12.895Z,947.27
2017-05-01T08:31:12.260Z,947.23
2017-05-01T08:32:12.499Z,947.27
2017-05-01T08:33:12.656Z,947.24
2017-05-01T08:34:11.380Z,947.24
2017-05-01T08:35:10.946Z,947.26
2017-05-01T08:36:14.103Z,947.31
2017-05-01T08:37:15.952Z,947.28
2017-05-01T08:38:12.672Z,947.30
2017-05-01T08:39:12.834Z,947.34
2017-05-01T08:40:12.602Z,947.40
2017-05-01T08:41:13.437Z,947.35
2017-05-01T08:42:12.584Z,947.34
2017-05-01T08:43:12.444Z,947.37
2017-05-01T08:44:13.506Z,947.39
2017-05-01T08:45:12.860Z,947.42
2017-05-01T08:46:12.806Z,947.41
2017-05-01T08:47:12.001Z,947.42
2017-05-01T08:48:12.278Z,947.40
2017-05-01T08:49:11.282Z,947.44
2017-05-01T08:50:13.053Z,947.48
2017-05-01T08:51:12.227Z,947.44
2017-05-01T08:52:12.486Z,947.48
2017-05-01T08:53:12.721Z,947.46
2017-05-01T08:54:11.662Z,947.46
2017-05-01T08:55:12.566Z,947.47
2017-05-01T08:56:11.297Z,947.47
2017-05-01T08:57:13.470Z,947.48
2017-05-01T08:58:13.198Z,947.50
2017-05-01T08:59:12.755Z,947.53
2017-05-01T09:00:11.754Z,947.50
2017-05-01T09:01:12.881Z,947.47
2017-05-01T09:02:11.961Z,947.49
2017-05-01T09:03:12.288Z,947.52
2017-05-01T09:04:12.516Z,947.52
2017-05-01T09:05:13.253Z,947.51
2017-05-01T09:06:11.150Z,947.49
2017-05-01T09:07:12.817Z,947.49
2017-05-01T09:08:14.469Z,947.48
2017-05-01T09:09:13.190Z,947.46
2017-05-01T09:10:13.087Z,947.49
2017-05-01T09:11:12.712Z,947.52
2017-05-01T09:12:14.574Z,947.54
2017-05-01T09:13:12.755Z,947.47
2017-05-01T09:14:12.027Z,947.59
2017-05-01T09:15:12.179Z,947.59
2017-05-01T09:16:12.870Z,947.56
2017-05-01T09:17:12.066Z,947.64
2017-05-01T09:18:12.315Z,947.62
2017-05-01T09:19:13.380Z,947.65
2017-05-01T09:20:13.007Z,947.66
2017-05-01T09:21:12.675Z,947.70
2017-05-01T09:22:13.622Z,947.66
2017-05-01T09:23:13.530Z,947.64
2017-05-01T09:24:12.894Z,947.59
2017-05-01T09:25:12.871Z,947.68
2017-05-01T09:26:12.766Z,947.63
2017-05-01T09:27:09.990Z,947.65
2017-05-01T09:28:12.519Z,947.70
2017-05-01T09:29:13.072Z,947.66
2017-05-01T09:30:12.990Z,947.64
2017-05-01T09:31:13.047Z,947.72
2017-05-01T09:32:11.080Z,947.68
2017-05-01T09:33:12.655Z,947.76
2017-05-01T09:34:14.251Z,947.68
2017-05-01T09:35:13.213Z,947.70
2017-05-01T09:36:13.430Z,947.63
2017-05-01T09:37:15.054Z,947.62
2017-05-01T09:38:12.281Z,947.66
2017-05-01T09:39:13.449Z,947.69
2017-05-01T09:40:12.711Z,947.69
2017-05-01T09:41:13.541Z,947.72
2017-05-01T09:42:15.232Z,947.67
2017-05-01T09:43:12.306Z,947.74
2017-05-01T09:44:13.112Z,947.73
2017-05-01T09:45:14.800Z,947.74
2017-05-01T09:46:14.796Z,947.84
2017-05-01T09:47:13.713Z,947.80
2017-05-01T09:48:12.857Z,947.81
2017-05-01T09:49:12.663Z,947.82
2017-05-01T09:50:13.394Z,947.78
2017-05-01T09:51:14.345Z,947.82
2017-05-01T09:52:13.361Z,947.82
2017-05-01T09:53:12.931Z,947.83
2017-05-01T09:54:09.348Z,947.85
2017-05-01T09:55:12.483Z,947.85
2017-05-01T09:56:10.561Z,947.84
2017-05-01T09:57:12.990Z,947.79
2017-05-01T09:58:13.035Z,947.79
2017-05-01T09:59:11.983Z,947.84
2017-05-01T10:00:13.737Z,947.81
2017-05-01T10:01:11.894Z,947.80
2017-05-01T10:02:13.604Z,947.80
2017-05-01T10:03:13.955Z,947.82
2017-05-01T10:04:12.024Z,947.79
2017-05-01T10:05:12.746Z,947.81
2017-05-01T10:06:13.405Z,947.82
2017-05-01T10:07:12.810Z,947.78
2017-05-01T10:08:13.069Z,947.83
2017-05-01T10:09:13.053Z,947.81
2017-05-01T10:10:20.678Z,947.80
2017-05-01T10:11:13.502Z,947.88
2017-05-01T10:12:13.885Z,947.82
2017-05-01T10:13:12.900Z,947.90
2017-05-01T10:14:12.464Z,947.88
2017-05-01T10:15:11.368Z,947.89
2017-05-01T10:16:14.061Z,947.90
2017-05-01T10:17:12.470Z,947.89
2017-05-01T10:18:12.725Z,947.90
2017-05-01T10:19:13.970Z,947.98
2017-05-01T10:20:12.922Z,947.99
2017-05-01T10:21:13.774Z,948.02
2017-05-01T10:22:10.859Z,947.98
2017-05-01T10:23:12.466Z,947.97
2017-05-01T10:24:20.652Z,947.94
2017-05-01T10:25:12.924Z,947.96
2017-05-01T10:26:13.696Z,947.91
2017-05-01T10:27:11.310Z,947.97
2017-05-01T10:28:13.731Z,947.93
2017-05-01T10:29:13.634Z,947.93
2017-05-01T10:30:13.752Z,947.96
2017-05-01T10:31:14.121Z,947.92
2017-05-01T10:32:12.545Z,947.95
2017-05-01T10:33:14.083Z,947.97
2017-05-01T10:34:12.546Z,948.00
2017-05-01T10:35:14.476Z,947.94
2017-05-01T10:36:13.215Z,947.98
2017-05-01T10:37:13.210Z,947.96
2017-05-01T10:38:13.233Z,947.96
2017-05-01T10:39:13.088Z,947.95
2017-05-01T10:40:13.067Z,948.00
2017-05-01T10:41:15.512Z,948.01
2017-05-01T10:42:15.274Z,948.02
2017-05-01T10:43:12.748Z,948.00
2017-05-01T10:44:13.153Z,947.98
2017-05-01T10:45:11.252Z,947.98
2017-05-01T10:46:14.553Z,948.01
2017-05-01T10:47:11.246Z,948.07
2017-05-01T10:48:13.457Z,948.07
2017-05-01T10:49:12.712Z,948.08
2017-05-01T10:50:13.110Z,948.07
2017-05-01T10:51:12.443Z,948.07
2017-05-01T10:52:12.853Z,948.03
2017-05-01T10:53:12.715Z,948.08
2017-05-01T10:54:13.157Z,948.06
2017-05-01T10:55:12.995Z,948.05
2017-05-01T10:56:12.451Z,948.05
2017-05-01T10:57:14.209Z,948.03
2017-05-01T10:58:13.439Z,948.04
2017-05-01T10:59:12.577Z,948.06
2017-05-01T11:00:13.331Z,948.05
2017-05-01T11:01:11.406Z,947.99
2017-05-01T11:02:13.614Z,947.99
2017-05-01T11:03:12.876Z,948.01
2017-05-01T11:04:13.016Z,948.01
2017-05-01T11:05:12.754Z,948.01
2017-05-01T11:06:12.811Z,948.05
2017-05-01T11:07:12.320Z,948.04
2017-05-01T11:08:14.340Z,948.07
2017-05-01T11:09:13.160Z,948.09
2017-05-01T11:10:12.924Z,948.06
2017-05-01T11:11:14.909Z,948.11
2017-05-01T11:12:10.835Z,948.11
2017-05-01T11:13:13.105Z,948.12
2017-05-01T11:14:12.815Z,948.14
2017-05-01T11:15:11.957Z,948.11
2017-05-01T11:16:12.810Z,948.14
2017-05-01T11:17:12.403Z,948.16
2017-05-01T11:18:10.729Z,948.10
2017-05-01T11:19:12.808Z,948.10
2017-05-01T11:20:11.969Z,948.10
2017-05-01T11:21:13.406Z,948.13
2017-05-01T11:22:13.164Z,948.14
2017-05-01T11:23:13.212Z,948.16
2017-05-01T11:24:11.270Z,948.19
2017-05-01T11:25:13.113Z,948.20
2017-05-01T11:26:12.327Z,948.18
2017-05-01T11:27:10.659Z,948.23
2017-05-01T11:28:12.876Z,948.20
2017-05-01T11:29:13.144Z,948.26
2017-05-01T11:30:13.596Z,948.26
2017-05-01T11:31:13.108Z,948.27
2017-05-01T11:32:12.430Z,948.24
2017-05-01T11:33:12.686Z,948.20
2017-05-01T11:34:13.693Z,948.20
2017-05-01T11:35:13.684Z,948.23
2017-05-01T11:36:12.969Z,948.18
2017-05-01T11:37:12.293Z,948.26
2017-05-01T11:38:13.075Z,948.22
2017-05-01T11:39:13.779Z,948.16
2017-05-01T11:40:12.454Z,948.23
2017-05-01T11:41:12.510Z,948.22
2017-05-01T11:42:12.567Z,948.23
2017-05-01T11:43:13.454Z,948.26
2017-05-01T11:44:14.258Z,948.32
2017-05-01T11:45:12.459Z,948.31
2017-05-01T11:46:12.709Z,948.29
2017-05-01T11:47:13.114Z,948.25
2017-05-01T11:48:13.456Z,948.26
2017-05-01T11:49:12.987Z,948.34
2017-05-01T11:50:13.081Z,948.31
2017-05-01T11:51:11.150Z,948.34
2017-05-01T11:52:13.016Z,948.34
2017-05-01T11:53:13.980Z,948.36
2017-05-01T11:54:12.026Z,948.36
2017-05-01T11:55:13.127Z,948.40
2017-05-01T11:56:12.495Z,948.36
2017-05-01T11:57:14.156Z,948.38
2017-05-01T11:58:14.097Z,948.37
2017-05-01T11:59:14.461Z,948.39
2017-05-01T12:00:12.530Z,948.40
2017-05-01T12:01:11.395Z,948.41
2017-05-01T12:02:13.056Z,948.40
2017-05-01T12:03:12.399Z,948.43
2017-05-01T12:04:13.169Z,948.37
2017-05-01T12:05:14.055Z,948.47
2017-05-01T12:06:12.141Z,948.49
2017-05-01T12:07:12.792Z,948.45
2017-05-01T12:08:13.124Z,948.48
2017-05-01T12:09:11.229Z,948.55
2017-05-01T12:10:12.737Z,948.54
2017-05-01T12:11:12.844Z,948.60
2017-05-01T12:12:13.577Z,948.56
2017-05-01T12:13:15.295Z,948.54
2017-05-01T12:14:15.087Z,948.63
2017-05-01T12:15:13.186Z,948.66
2017-05-01T12:16:12.797Z,948.63
2017-05-01T12:17:12.674Z,948.68
2017-05-01T12:18:13.865Z,948.69
2017-05-01T12:19:12.467Z,948.68
2017-05-01T12:20:13.877Z,948.69
2017-05-01T12:21:13.637Z,948.72
2017-05-01T12:22:12.646Z,948.72
2017-05-01T12:23:13.797Z,948.72
2017-05-01T12:24:12.008Z,948.74
2017-05-01T12:25:12.258Z,948.76
2017-05-01T12:26:14.176Z,948.80
2017-05-01T12:27:13.310Z,948.82
2017-05-01T12:28:13.097Z,948.81